Time;durP1;ratioP1;P1;durP2;ratioP2;P2;SDS_P1;SDS_P2;PMS_P1;PMS_P2;Temp;Humidity;BMP_temperature;BMP_pressure;BME280_temperature;BME280_humidity;BME280_pressure;Samples;Min_cycle;Max_cycle;Signal;HPM_P1;HPM_P2
2022/04/15 00:00:45;;;;;;;;;;;;;;;;;;5051375;28;1522;-72
2022/04/15 00:03:11;;;;;;;;;;;;;;;;;;5051852;28;1517;-72
2022/04/15 00:05:37;;;;;;;;;;;;;;;;;;5055171;28;1902;-72
2022/04/15 00:08:11;;;;;;;;;;;;;;;;;;5055246;28;1513;-70
2022/04/15 00:10:39;;;;;;;;;;;;;;;;;;5057841;28;1522;-71
2022/04/15 00:13:08;;;;;;;;;;;;;;;;;;5054256;28;1554;-72
2022/04/15 00:15:33;;;;;;;;;;;;;;;;;;5059182;28;1510;-72
2022/04/15 00:17:59;;;;;;;;;;;;;;;;;;5061121;28;1430;-72
2022/04/15 00:20:26;;;;;;;;;;;;;;;;;;5058328;28;1640;-72
2022/04/15 00:22:52;;;;;;;;;;;;;;;;;;5057049;28;1513;-72
2022/04/15 00:25:18;;;;;;;;;;;;;;;;;;5060571;28;1906;-73
2022/04/15 00:27:43;;;;;;;;;;;;;;;;;;5044653;28;1491;-73
2022/04/15 00:30:09;;;;;;;;;;;;;;;;;;5059086;28;1482;-73
2022/04/15 00:32:35;;;;;;;;;;;;;;;;;;5058818;28;1665;-73
2022/04/15 00:35:00;;;;;;;;;;;;;;;;;;5057728;28;1494;-73
2022/04/15 00:37:25;;;;;;;;;;;;;;;;;;5058189;28;1112;-73
2022/04/15 00:39:51;;;;;;;;;;;;;;;;;;5053062;28;1702;-73
2022/04/15 00:42:17;;;;;;;;;;;;;;;;;;5054444;28;1506;-73
2022/04/15 00:44:42;;;;;;;;;;;;;;;;;;5059155;28;1455;-73
2022/04/15 00:47:17;;;;;;;;;;;;;;;;;;5051000;28;1890;-73
2022/04/15 00:49:43;;;;;;;;;;;;;;;;;;5055324;28;1596;-73
2022/04/15 00:52:09;;;;;;;;;;;;;;;;;;5055148;28;1259;-73
2022/04/15 00:54:36;;;;;;;;;;;;;;;;;;5060133;28;1533;-71
2022/04/15 00:57:01;;;;;;;;;;;;;;;;;;5056839;28;1551;-71
2022/04/15 00:59:28;;;;;;;;;;;;;;;;;;5052795;28;1475;-71
2022/04/15 01:01:53;;;;;;;;;;;;;;;;;;5054889;28;1509;-72
2022/04/15 01:04:20;;;;;;;;;;;;;;;;;;5055605;28;1517;-72
2022/04/15 01:06:49;;;;;;;;;;;;;;;;;;5053740;28;1899;-72
2022/04/15 01:09:15;;;;;;;;;;;;;;;;;;5057723;28;1570;-72
2022/04/15 01:11:43;;;;;;;;;;;;;;;;;;5057239;28;1243;-72
2022/04/15 01:14:10;;;;;;;;;;;;;;;;;;5057388;28;1533;-72
2022/04/15 01:16:35;;;;;;;;;;;;;;;;;;5055387;28;1557;-72
2022/04/15 01:19:00;;;;;;;;;;;;;;;;;;5058451;28;1664;-72
2022/04/15 01:21:27;;;;;;;;;;;;;;;;;;5057777;28;1535;-72
2022/04/15 01:23:53;;;;;;;;;;;;;;;;;;5051610;28;1212;-72
2022/04/15 01:26:19;;;;;;;;;;;;;;;;;;5058911;28;1902;-72
2022/04/15 01:28:44;;;;;;;;;;;;;;;;;;5052039;28;1435;-72
2022/04/15 01:31:09;;;;;;;;;;;;;;;;;;5059172;28;1618;-72
2022/04/15 01:33:34;;;;;;;;;;;;;;;;;;5057111;28;1549;-73
2022/04/15 01:35:59;;;;;;;;;;;;;;;;;;5058267;28;1743;-72
2022/04/15 01:38:25;;;;;;;;;;;;;;;;;;5058123;28;1553;-72
2022/04/15 01:40:52;;;;;;;;;;;;;;;;;;5054716;28;1510;-72
2022/04/15 01:43:17;;;;;;;;;;;;;;;;;;5056446;28;1600;-72
2022/04/15 01:45:42;;;;;;;;;;;;;;;;;;5056484;28;1874;-72
2022/04/15 01:48:07;;;;;;;;;;;;;;;;;;5053787;28;1650;-72
2022/04/15 01:50:32;;;;;;;;;;;;;;;;;;5056882;28;1557;-72
2022/04/15 01:52:58;;;;;;;;;;;;;;;;;;5058755;28;1522;-72
2022/04/15 01:55:23;;;;;;;;;;;;;;;;;;5058684;28;1530;-72
2022/04/15 01:57:49;;;;;;;;;;;;;;;;;;5058223;28;1630;-72
2022/04/15 02:00:14;;;;;;;;;;;;;;;;;;5058163;28;1537;-72
2022/04/15 02:02:39;;;;;;;;;;;;;;;;;;5053312;28;1455;-72
2022/04/15 02:05:05;;;;;;;;;;;;;;;;;;5053549;28;1965;-72
2022/04/15 02:07:30;;;;;;;;;;;;;;;;;;5062054;28;1596;-72
2022/04/15 02:09:55;;;;;;;;;;;;;;;;;;5062245;28;1531;-72
2022/04/15 02:12:20;;;;;;;;;;;;;;;;;;5060624;28;1786;-72
2022/04/15 02:14:47;;;;;;;;;;;;;;;;;;5061201;28;1494;-72
2022/04/15 02:17:12;;;;;;;;;;;;;;;;;;5057841;28;1581;-72
2022/04/15 02:19:37;;;;;;;;;;;;;;;;;;5061082;28;1686;-72
2022/04/15 02:22:02;;;;;;;;;;;;;;;;;;5062691;28;1377;-73
2022/04/15 02:24:28;;;;;;;;;;;;;;;;;;5054315;28;1478;-73
2022/04/15 02:26:53;;;;;;;;;;;;;;;;;;5058126;28;1989;-73
2022/04/15 02:29:18;;;;;;;;;;;;;;;;;;5051460;28;1521;-73
2022/04/15 02:31:43;;;;;;;;;;;;;;;;;;5061612;28;1525;-73
2022/04/15 02:34:08;;;;;;;;;;;;;;;;;;5061447;28;1498;-72
2022/04/15 02:36:34;;;;;;;;;;;;;;;;;;5050903;28;1379;-72
2022/04/15 02:38:59;;;;;;;;;;;;;;;;;;5060031;28;1502;-72
2022/04/15 02:41:24;;;;;;;;;;;;;;;;;;5062799;28;811;-72
2022/04/15 02:43:49;;;;;;;;;;;;;;;;;;5062604;28;1493;-72
2022/04/15 02:46:15;;;;;;;;;;;;;;;;;;5062386;28;1894;-72
2022/04/15 02:48:40;;;;;;;;;;;;;;;;;;5060893;28;1537;-72
2022/04/15 02:51:05;;;;;;;;;;;;;;;;;;5061495;28;1533;-72
2022/04/15 02:53:31;;;;;;;;;;;;;;;;;;5061025;28;1665;-72
2022/04/15 02:55:57;;;;;;;;;;;;;;;;;;5060679;28;1482;-72
2022/04/15 02:58:22;;;;;;;;;;;;;;;;;;5061711;28;1517;-72
2022/04/15 03:00:47;;;;;;;;;;;;;;;;;;5060452;28;1545;-72
2022/04/15 03:03:13;;;;;;;;;;;;;;;;;;5061333;28;1526;-72
2022/04/15 03:05:38;;;;;;;;;;;;;;;;;;5052297;28;1970;-72
2022/04/15 03:08:04;;;;;;;;;;;;;;;;;;5059944;28;1502;-72
2022/04/15 03:10:29;;;;;;;;;;;;;;;;;;5060151;28;1675;-72
2022/04/15 03:12:54;;;;;;;;;;;;;;;;;;5060326;28;1498;-73
2022/04/15 03:15:19;;;;;;;;;;;;;;;;;;5053248;28;1136;-72
2022/04/15 03:17:44;;;;;;;;;;;;;;;;;;5063413;28;1466;-72
2022/04/15 03:20:13;;;;;;;;;;;;;;;;;;5056999;28;1620;-73
2022/04/15 03:22:42;;;;;;;;;;;;;;;;;;5075678;28;1532;-73
2022/04/15 03:25:08;;;;;;;;;;;;;;;;;;5064809;28;1914;-72
2022/04/15 03:27:33;;;;;;;;;;;;;;;;;;5060796;28;1317;-72
2022/04/15 03:29:59;;;;;;;;;;;;;;;;;;5060186;28;1596;-72
2022/04/15 03:32:24;;;;;;;;;;;;;;;;;;5059576;28;1546;-72
2022/04/15 03:34:53;;;;;;;;;;;;;;;;;;5060874;28;1518;-72
2022/04/15 03:37:18;;;;;;;;;;;;;;;;;;5053885;28;1510;-72
2022/04/15 03:39:43;;;;;;;;;;;;;;;;;;5054560;28;1510;-73
2022/04/15 03:42:09;;;;;;;;;;;;;;;;;;5055074;28;1486;-73
2022/04/15 03:44:35;;;;;;;;;;;;;;;;;;5054258;28;1458;-73
2022/04/15 03:47:00;;;;;;;;;;;;;;;;;;5056428;28;1886;-72
2022/04/15 03:49:25;;;;;;;;;;;;;;;;;;5054955;28;1549;-72
2022/04/15 03:51:50;;;;;;;;;;;;;;;;;;5056981;28;1517;-71
2022/04/15 03:54:15;;;;;;;;;;;;;;;;;;5054102;28;1632;-72
2022/04/15 03:56:40;;;;;;;;;;;;;;;;;;5057184;28;1565;-73
2022/04/15 03:59:06;;;;;;;;;;;;;;;;;;5053785;28;1290;-73
2022/04/15 04:01:31;;;;;;;;;;;;;;;;;;5052921;28;1517;-73
2022/04/15 04:03:56;;;;;;;;;;;;;;;;;;5051168;28;1311;-73
2022/04/15 04:06:21;;;;;;;;;;;;;;;;;;5058869;28;1902;-71
2022/04/15 04:08:49;;;;;;;;;;;;;;;;;;5059362;28;1542;-71
2022/04/15 04:11:16;;;;;;;;;;;;;;;;;;5056634;28;1490;-72
2022/04/15 04:13:41;;;;;;;;;;;;;;;;;;5054042;28;1657;-75
2022/04/15 04:16:06;;;;;;;;;;;;;;;;;;5052695;28;1506;-73
2022/04/15 04:18:32;;;;;;;;;;;;;;;;;;5059136;28;1073;-74
2022/04/15 04:20:57;;;;;;;;;;;;;;;;;;5059380;28;1510;-74
2022/04/15 04:23:22;;;;;;;;;;;;;;;;;;5058780;28;1529;-74
2022/04/15 04:25:47;;;;;;;;;;;;;;;;;;5055452;28;1902;-71
2022/04/15 04:28:12;;;;;;;;;;;;;;;;;;5056602;28;1144;-72
2022/04/15 04:30:38;;;;;;;;;;;;;;;;;;5058920;28;1392;-72
2022/04/15 04:33:03;;;;;;;;;;;;;;;;;;5054747;28;1545;-72
2022/04/15 04:35:28;;;;;;;;;;;;;;;;;;5059884;28;1605;-72
2022/04/15 04:37:53;;;;;;;;;;;;;;;;;;5060897;28;1383;-69
2022/04/15 04:40:18;;;;;;;;;;;;;;;;;;5060988;28;1447;-69
2022/04/15 04:42:44;;;;;;;;;;;;;;;;;;5060648;28;1386;-68
2022/04/15 04:45:13;;;;;;;;;;;;;;;;;;5060798;28;1898;-67
2022/04/15 04:47:39;;;;;;;;;;;;;;;;;;5060800;28;1438;-68
2022/04/15 04:50:06;;;;;;;;;;;;;;;;;;5060934;28;792;-68
2022/04/15 04:52:31;;;;;;;;;;;;;;;;;;5060002;28;1431;-68
2022/04/15 04:54:56;;;;;;;;;;;;;;;;;;5060152;28;1450;-68
2022/04/15 04:57:21;;;;;;;;;;;;;;;;;;5060691;28;1453;-68
2022/04/15 04:59:46;;;;;;;;;;;;;;;;;;5060821;28;879;-67
2022/04/15 05:02:12;;;;;;;;;;;;;;;;;;5059223;28;1343;-68
2022/04/15 05:04:37;;;;;;;;;;;;;;;;;;5060791;28;1390;-68
2022/04/15 05:07:03;;;;;;;;;;;;;;;;;;5060216;28;1973;-68
2022/04/15 05:09:28;;;;;;;;;;;;;;;;;;5060312;28;1355;-68
2022/04/15 05:11:54;;;;;;;;;;;;;;;;;;5060249;28;1271;-68
2022/04/15 05:14:19;;;;;;;;;;;;;;;;;;5060650;28;1339;-70
2022/04/15 05:16:44;;;;;;;;;;;;;;;;;;5060434;28;839;-69
2022/04/15 05:19:09;;;;;;;;;;;;;;;;;;5060697;28;1053;-70
2022/04/15 05:21:35;;;;;;;;;;;;;;;;;;5060251;28;1267;-71
2022/04/15 05:24:01;;;;;;;;;;;;;;;;;;5058529;28;1418;-69
2022/04/15 05:26:26;;;;;;;;;;;;;;;;;;5060005;28;1898;-70
2022/04/15 05:28:51;;;;;;;;;;;;;;;;;;5060480;28;1406;-71
2022/04/15 05:31:16;;;;;;;;;;;;;;;;;;5060480;28;950;-72
2022/04/15 05:33:41;;;;;;;;;;;;;;;;;;5059485;28;1423;-70
2022/04/15 05:36:07;;;;;;;;;;;;;;;;;;5060203;28;1014;-71
2022/04/15 05:38:32;;;;;;;;;;;;;;;;;;5061374;28;1394;-71
2022/04/15 05:40:57;;;;;;;;;;;;;;;;;;5064014;28;914;-71
2022/04/15 05:43:22;;;;;;;;;;;;;;;;;;5062481;28;1422;-68
2022/04/15 05:45:47;;;;;;;;;;;;;;;;;;5063398;28;1894;-69
2022/04/15 05:48:13;;;;;;;;;;;;;;;;;;5063241;28;1477;-69
2022/04/15 05:50:38;;;;;;;;;;;;;;;;;;5063601;28;922;-69
2022/04/15 05:53:03;;;;;;;;;;;;;;;;;;5063408;28;1156;-70
2022/04/15 05:55:28;;;;;;;;;;;;;;;;;;5062273;28;881;-69
2022/04/15 05:57:53;;;;;;;;;;;;;;;;;;5063497;28;1049;-69
2022/04/15 06:00:19;;;;;;;;;;;;;;;;;;5063475;28;796;-69
2022/04/15 06:02:44;;;;;;;;;;;;;;;;;;5063145;28;1443;-69
2022/04/15 06:05:09;;;;;;;;;;;;;;;;;;5063379;28;1957;-69
2022/04/15 06:07:35;;;;;;;;;;;;;;;;;;5061926;28;1563;-69
2022/04/15 06:10:02;;;;;;;;;;;;;;;;;;5062023;28;1350;-70
2022/04/15 06:12:54;;;;;;;;;;;;;;;;;;5062574;28;1325;-69
2022/04/15 06:15:23;;;;;;;;;;;;;;;;;;5063389;28;915;-69
2022/04/15 06:17:49;;;;;;;;;;;;;;;;;;5063232;28;862;-69
2022/04/15 06:20:14;;;;;;;;;;;;;;;;;;5063248;28;894;-69
2022/04/15 06:22:43;;;;;;;;;;;;;;;;;;5061596;28;1200;-69
2022/04/15 06:25:08;;;;;;;;;;;;;;;;;;5063433;28;1973;-69
2022/04/15 06:27:34;;;;;;;;;;;;;;;;;;5063244;28;1099;-70
2022/04/15 06:29:59;;;;;;;;;;;;;;;;;;5062872;28;1513;-69
2022/04/15 06:32:24;;;;;;;;;;;;;;;;;;5062842;28;1521;-70
2022/04/15 06:34:50;;;;;;;;;;;;;;;;;;5063122;28;800;-69
2022/04/15 06:37:15;;;;;;;;;;;;;;;;;;5062904;28;1502;-69
2022/04/15 06:39:42;;;;;;;;;;;;;;;;;;5063060;28;815;-69
2022/04/15 06:42:07;;;;;;;;;;;;;;;;;;5061310;28;1243;-69
2022/04/15 06:44:35;;;;;;;;;;;;;;;;;;5062814;28;859;-68
2022/04/15 06:47:00;;;;;;;;;;;;;;;;;;5062553;28;1898;-68
2022/04/15 06:49:25;;;;;;;;;;;;;;;;;;5062703;28;931;-68
2022/04/15 06:51:51;;;;;;;;;;;;;;;;;;5062357;28;1176;-69
2022/04/15 06:54:16;;;;;;;;;;;;;;;;;;5062836;28;898;-68
2022/04/15 06:56:41;;;;;;;;;;;;;;;;;;5061076;28;1443;-68
2022/04/15 06:59:06;;;;;;;;;;;;;;;;;;5062619;28;954;-69
2022/04/15 07:01:32;;;;;;;;;;;;;;;;;;5062467;28;1295;-69
2022/04/15 07:03:57;;;;;;;;;;;;;;;;;;5062208;28;1403;-69
2022/04/15 07:06:23;;;;;;;;;;;;;;;;;;5062369;28;1951;-69
2022/04/15 07:08:48;;;;;;;;;;;;;;;;;;5062707;28;831;-69
2022/04/15 07:11:14;;;;;;;;;;;;;;;;;;5062386;28;974;-69
2022/04/15 07:13:39;;;;;;;;;;;;;;;;;;5061883;28;1510;-69
2022/04/15 07:16:04;;;;;;;;;;;;;;;;;;5062225;28;764;-69
2022/04/15 07:18:29;;;;;;;;;;;;;;;;;;5062595;28;1014;-69
2022/04/15 07:20:55;;;;;;;;;;;;;;;;;;5062301;28;915;-69
2022/04/15 07:23:20;;;;;;;;;;;;;;;;;;5061604;28;1486;-69
2022/04/15 07:25:45;;;;;;;;;;;;;;;;;;5062135;28;1968;-69
2022/04/15 07:28:10;;;;;;;;;;;;;;;;;;5060645;28;1438;-70
2022/04/15 07:30:37;;;;;;;;;;;;;;;;;;5060880;28;1348;-69
2022/04/15 07:33:02;;;;;;;;;;;;;;;;;;5061895;28;1184;-68
2022/04/15 07:35:28;;;;;;;;;;;;;;;;;;5062055;28;843;-68
2022/04/15 07:37:53;;;;;;;;;;;;;;;;;;5062040;28;812;-69
2022/04/15 07:40:18;;;;;;;;;;;;;;;;;;5060834;28;867;-68
2022/04/15 07:42:43;;;;;;;;;;;;;;;;;;5061598;28;1270;-69
2022/04/15 07:45:09;;;;;;;;;;;;;;;;;;5061810;28;1894;-69
2022/04/15 07:47:34;;;;;;;;;;;;;;;;;;5061709;28;919;-69
2022/04/15 07:49:59;;;;;;;;;;;;;;;;;;5061844;28;965;-68
2022/04/15 07:52:24;;;;;;;;;;;;;;;;;;5060047;28;1435;-68
2022/04/15 07:54:50;;;;;;;;;;;;;;;;;;5061839;28;856;-68
2022/04/15 07:57:17;;;;;;;;;;;;;;;;;;5061762;28;879;-68
2022/04/15 07:59:42;;;;;;;;;;;;;;;;;;5061735;28;847;-69
2022/04/15 08:02:07;;;;;;;;;;;;;;;;;;5060545;28;1219;-69
2022/04/15 08:04:36;;;;;;;;;;;;;;;;;;5061511;28;1511;-69
2022/04/15 08:07:02;;;;;;;;;;;;;;;;;;5061502;28;1910;-69
2022/04/15 08:09:27;;;;;;;;;;;;;;;;;;5060239;28;1513;-69
2022/04/15 08:11:54;;;;;;;;;;;;;;;;;;5061033;28;1254;-69
2022/04/15 08:14:19;;;;;;;;;;;;;;;;;;5061362;28;1499;-69
2022/04/15 08:16:44;;;;;;;;;;;;;;;;;;5061221;28;957;-69
2022/04/15 08:19:10;;;;;;;;;;;;;;;;;;5061280;28;1446;-69
2022/04/15 08:21:35;;;;;;;;;;;;;;;;;;5061616;28;1204;-69
2022/04/15 08:24:01;;;;;;;;;;;;;;;;;;5061585;28;836;-68
2022/04/15 08:26:27;;;;;;;;;;;;;;;;;;5061040;28;1894;-68
2022/04/15 08:28:52;;;;;;;;;;;;;;;;;;5061185;28;943;-68
2022/04/15 08:31:17;;;;;;;;;;;;;;;;;;5061175;28;827;-68
2022/04/15 08:33:42;;;;;;;;;;;;;;;;;;5060956;28;1266;-69
2022/04/15 08:36:08;;;;;;;;;;;;;;;;;;5061131;28;887;-68
2022/04/15 08:38:33;;;;;;;;;;;;;;;;;;5061174;28;866;-68
2022/04/15 08:40:58;;;;;;;;;;;;;;;;;;5060949;28;1060;-68
2022/04/15 08:43:25;;;;;;;;;;;;;;;;;;5060856;28;1288;-68
2022/04/15 08:45:50;;;;;;;;;;;;;;;;;;5060737;28;1898;-68
2022/04/15 08:48:16;;;;;;;;;;;;;;;;;;5060938;28;942;-69
2022/04/15 08:50:41;;;;;;;;;;;;;;;;;;5061018;28;811;-69
2022/04/15 08:53:07;;;;;;;;;;;;;;;;;;5060589;28;1264;-68
2022/04/15 08:55:32;;;;;;;;;;;;;;;;;;5060836;28;1076;-69
2022/04/15 08:57:57;;;;;;;;;;;;;;;;;;5060707;28;844;-69
2022/04/15 09:00:23;;;;;;;;;;;;;;;;;;5060775;28;895;-68
2022/04/15 09:02:52;;;;;;;;;;;;;;;;;;5060430;28;1475;-69
2022/04/15 09:05:19;;;;;;;;;;;;;;;;;;5060608;28;1898;-68
2022/04/15 09:07:45;;;;;;;;;;;;;;;;;;5060209;28;1491;-69
2022/04/15 09:10:11;;;;;;;;;;;;;;;;;;5060766;28;840;-69
2022/04/15 09:12:37;;;;;;;;;;;;;;;;;;5060391;28;1212;-68
2022/04/15 09:15:06;;;;;;;;;;;;;;;;;;5063684;28;919;-69
2022/04/15 09:17:31;;;;;;;;;;;;;;;;;;5064280;28;866;-69
2022/04/15 09:19:59;;;;;;;;;;;;;;;;;;5063796;28;1498;-69
2022/04/15 09:22:24;;;;;;;;;;;;;;;;;;5063647;28;1480;-69
2022/04/15 09:24:51;;;;;;;;;;;;;;;;;;5064143;28;815;-69
2022/04/15 09:27:17;;;;;;;;;;;;;;;;;;5064159;28;1894;-68
2022/04/15 09:29:42;;;;;;;;;;;;;;;;;;5061912;28;1502;-69
2022/04/15 09:32:14;;;;;;;;;;;;;;;;;;5063685;28;1176;-69
2022/04/15 09:34:54;;;;;;;;;;;;;;;;;;5064265;28;824;-69
2022/04/15 09:37:20;;;;;;;;;;;;;;;;;;5064021;28;890;-69
2022/04/15 09:40:05;;;;;;;;;;;;;;;;;;5064060;28;871;-69
2022/04/15 09:42:31;;;;;;;;;;;;;;;;;;5062062;28;1466;-68
2022/04/15 09:44:59;;;;;;;;;;;;;;;;;;5063878;28;899;-69
2022/04/15 09:47:24;;;;;;;;;;;;;;;;;;5063652;28;1889;-68
2022/04/15 09:49:49;;;;;;;;;;;;;;;;;;5063799;28;890;-68
2022/04/15 09:52:23;;;;;;;;;;;;;;;;;;5063177;28;1510;-69
2022/04/15 09:54:49;;;;;;;;;;;;;;;;;;5063658;28;946;-69
2022/04/15 09:57:15;;;;;;;;;;;;;;;;;;5063367;28;1458;-69
2022/04/15 09:59:44;;;;;;;;;;;;;;;;;;5063611;28;994;-69
2022/04/15 10:02:11;;;;;;;;;;;;;;;;;;5062790;28;1462;-69
2022/04/15 10:04:37;;;;;;;;;;;;;;;;;;5063550;28;914;-68
2022/04/15 10:07:06;;;;;;;;;;;;;;;;;;5063137;28;1894;-68
2022/04/15 10:09:35;;;;;;;;;;;;;;;;;;5063582;28;834;-69
2022/04/15 10:12:01;;;;;;;;;;;;;;;;;;5062850;28;1189;-68
2022/04/15 10:14:27;;;;;;;;;;;;;;;;;;5063526;28;898;-68
2022/04/15 10:16:52;;;;;;;;;;;;;;;;;;5063232;28;1001;-68
2022/04/15 10:19:18;;;;;;;;;;;;;;;;;;5063270;28;922;-68
2022/04/15 10:21:44;;;;;;;;;;;;;;;;;;5062528;28;1506;-68
2022/04/15 10:24:10;;;;;;;;;;;;;;;;;;5062410;28;898;-68
2022/04/15 10:26:39;;;;;;;;;;;;;;;;;;5063079;28;1906;-69
2022/04/15 10:29:05;;;;;;;;;;;;;;;;;;5062946;28;807;-69
2022/04/15 10:31:41;;;;;;;;;;;;;;;;;;5062875;28;903;-69
2022/04/15 10:34:13;;;;;;;;;;;;;;;;;;5062671;28;886;-69
2022/04/15 10:36:43;;;;;;;;;;;;;;;;;;5062912;28;883;-68
2022/04/15 10:39:09;;;;;;;;;;;;;;;;;;5061510;28;1568;-68
2022/04/15 10:41:43;;;;;;;;;;;;;;;;;;5062856;28;1243;-68
2022/04/15 10:44:35;;;;;;;;;;;;;;;;;;5062660;28;1557;-68
2022/04/15 10:47:04;;;;;;;;;;;;;;;;;;5060888;28;1972;-68
2022/04/15 10:49:30;;;;;;;;;;;;;;;;;;5062875;28;808;-68
2022/04/15 10:51:58;;;;;;;;;;;;;;;;;;5062480;28;1192;-68
2022/04/15 10:54:36;;;;;;;;;;;;;;;;;;5062881;28;835;-68
2022/04/15 10:57:03;;;;;;;;;;;;;;;;;;5062547;28;1454;-68
2022/04/15 11:02:16;;;;;;;;;;;;;;;;;;5062601;28;1299;-68
2022/04/15 11:04:47;;;;;;;;;;;;;;;;;;5062823;28;899;-68
2022/04/15 11:07:41;;;;;;;;;;;;;;;;;;5062674;28;1961;-68
2022/04/15 11:10:14;;;;;;;;;;;;;;;;;;5062713;28;902;-68
2022/04/15 11:12:42;;;;;;;;;;;;;;;;;;5062084;28;1474;-68
2022/04/15 11:15:08;;;;;;;;;;;;;;;;;;5062441;28;836;-68
2022/04/15 11:17:41;;;;;;;;;;;;;;;;;;5062405;28;978;-68
2022/04/15 11:20:09;;;;;;;;;;;;;;;;;;5061831;28;1435;-68
2022/04/15 11:22:41;;;;;;;;;;;;;;;;;;5062037;28;1309;-68
2022/04/15 11:25:11;;;;;;;;;;;;;;;;;;5062233;28;927;-68
2022/04/15 11:27:39;;;;;;;;;;;;;;;;;;5061759;28;1951;-69
2022/04/15 11:30:09;;;;;;;;;;;;;;;;;;5062068;28;866;-69
2022/04/15 11:32:44;;;;;;;;;;;;;;;;;;5061611;28;1494;-68
2022/04/15 11:35:09;;;;;;;;;;;;;;;;;;5061953;28;998;-68
2022/04/15 11:37:34;;;;;;;;;;;;;;;;;;5060975;28;1494;-68
2022/04/15 11:40:00;;;;;;;;;;;;;;;;;;5061987;28;890;-68
2022/04/15 11:42:26;;;;;;;;;;;;;;;;;;5061758;28;1271;-68
2022/04/15 11:44:51;;;;;;;;;;;;;;;;;;5061703;28;1486;-67
2022/04/15 11:47:23;;;;;;;;;;;;;;;;;;5061880;28;1953;-67
2022/04/15 11:49:52;;;;;;;;;;;;;;;;;;5061894;28;875;-67
2022/04/15 11:52:25;;;;;;;;;;;;;;;;;;5060256;28;1229;-70
2022/04/15 11:54:51;;;;;;;;;;;;;;;;;;5061844;28;815;-68
2022/04/15 11:57:16;;;;;;;;;;;;;;;;;;5061743;28;890;-68
2022/04/15 11:59:42;;;;;;;;;;;;;;;;;;5061607;28;835;-68
2022/04/15 12:02:07;;;;;;;;;;;;;;;;;;5061326;28;1514;-68
2022/04/15 12:04:33;;;;;;;;;;;;;;;;;;5061771;28;973;-67
2022/04/15 12:06:59;;;;;;;;;;;;;;;;;;5061451;28;1894;-67
2022/04/15 12:09:25;;;;;;;;;;;;;;;;;;5061400;28;1553;-68
2022/04/15 12:11:50;;;;;;;;;;;;;;;;;;5061208;28;1251;-68
2022/04/15 12:14:17;;;;;;;;;;;;;;;;;;5061549;28;820;-68
2022/04/15 12:16:42;;;;;;;;;;;;;;;;;;5061652;28;906;-68
2022/04/15 12:19:08;;;;;;;;;;;;;;;;;;5061499;28;848;-68
2022/04/15 12:21:34;;;;;;;;;;;;;;;;;;5061447;28;1192;-68
2022/04/15 12:24:03;;;;;;;;;;;;;;;;;;5059563;28;1561;-68
2022/04/15 12:26:39;;;;;;;;;;;;;;;;;;5061203;28;1964;-68
2022/04/15 12:31:48;;;;;;;;;;;;;;;;;;5060884;28;1486;-68
2022/04/15 12:34:14;;;;;;;;;;;;;;;;;;5061385;28;879;-68
2022/04/15 12:36:43;;;;;;;;;;;;;;;;;;5061057;28;875;-68
2022/04/15 12:39:09;;;;;;;;;;;;;;;;;;5061037;28;871;-68
2022/04/15 12:41:41;;;;;;;;;;;;;;;;;;5061087;28;1184;-68
2022/04/15 12:44:10;;;;;;;;;;;;;;;;;;5060982;28;898;-68
2022/04/15 12:46:35;;;;;;;;;;;;;;;;;;5060803;28;1894;-68
2022/04/15 12:49:00;;;;;;;;;;;;;;;;;;5060642;28;977;-68
2022/04/15 12:51:35;;;;;;;;;;;;;;;;;;5060787;28;847;-68
2022/04/15 12:54:06;;;;;;;;;;;;;;;;;;5060975;28;1009;-68
2022/04/15 12:56:31;;;;;;;;;;;;;;;;;;5061005;28;1086;-68
2022/04/15 12:58:57;;;;;;;;;;;;;;;;;;5060765;28;867;-68
2022/04/15 13:01:23;;;;;;;;;;;;;;;;;;5060679;28;1514;-68
2022/04/15 13:03:52;;;;;;;;;;;;;;;;;;5060449;28;1160;-68
2022/04/15 13:06:17;;;;;;;;;;;;;;;;;;5060670;28;1955;-68
2022/04/15 13:08:42;;;;;;;;;;;;;;;;;;5060718;28;938;-67
2022/04/15 13:11:08;;;;;;;;;;;;;;;;;;5060777;28;1068;-67
2022/04/15 13:13:34;;;;;;;;;;;;;;;;;;5058324;28;1510;-68
2022/04/15 13:15:59;;;;;;;;;;;;;;;;;;5060691;28;931;-68
2022/04/15 13:18:24;;;;;;;;;;;;;;;;;;5060344;28;1455;-68
2022/04/15 13:20:49;;;;;;;;;;;;;;;;;;5060535;28;899;-69
2022/04/15 13:23:15;;;;;;;;;;;;;;;;;;5060278;28;1286;-68
2022/04/15 13:25:40;;;;;;;;;;;;;;;;;;5060495;28;1905;-68
2022/04/15 13:28:06;;;;;;;;;;;;;;;;;;5060337;28;1515;-68
2022/04/15 13:30:31;;;;;;;;;;;;;;;;;;5060394;28;1013;-68
2022/04/15 13:33:02;;;;;;;;;;;;;;;;;;5060273;28;1200;-68
2022/04/15 13:35:27;;;;;;;;;;;;;;;;;;5060274;28;851;-68
2022/04/15 13:37:52;;;;;;;;;;;;;;;;;;5060323;28;966;-67
2022/04/15 13:40:18;;;;;;;;;;;;;;;;;;5060200;28;859;-68
2022/04/15 13:42:43;;;;;;;;;;;;;;;;;;5059880;28;1660;-68
2022/04/15 13:45:08;;;;;;;;;;;;;;;;;;5060284;28;803;-67
2022/04/15 13:47:33;;;;;;;;;;;;;;;;;;5060380;28;1949;-68
2022/04/15 13:50:00;;;;;;;;;;;;;;;;;;5060003;28;827;-68
2022/04/15 13:57:53;;;;;;;;;;;;;;;;;;5059965;28;1482;-68
2022/04/15 14:00:18;;;;;;;;;;;;;;;;;;5062231;28;811;-67
2022/04/15 14:02:45;;;;;;;;;;;;;;;;;;5063240;28;1533;-68
2022/04/15 14:05:10;;;;;;;;;;;;;;;;;;5063313;28;1510;-68
2022/04/15 14:07:36;;;;;;;;;;;;;;;;;;5063501;28;1890;-68
2022/04/15 14:10:01;;;;;;;;;;;;;;;;;;5063390;28;899;-68
2022/04/15 14:12:26;;;;;;;;;;;;;;;;;;5063140;28;1191;-68
2022/04/15 14:14:51;;;;;;;;;;;;;;;;;;5063070;28;1458;-68
2022/04/15 14:17:17;;;;;;;;;;;;;;;;;;5063383;28;1018;-67
2022/04/15 14:19:42;;;;;;;;;;;;;;;;;;5063147;28;934;-68
2022/04/15 14:22:07;;;;;;;;;;;;;;;;;;5063206;28;1271;-68
2022/04/15 14:24:37;;;;;;;;;;;;;;;;;;5063335;28;803;-68
2022/04/15 14:27:02;;;;;;;;;;;;;;;;;;5063119;28;1957;-68
2022/04/15 14:29:27;;;;;;;;;;;;;;;;;;5063129;28;1013;-68
2022/04/15 14:31:52;;;;;;;;;;;;;;;;;;5062689;28;1486;-69
2022/04/15 14:34:20;;;;;;;;;;;;;;;;;;5063257;28;819;-68
2022/04/15 14:36:46;;;;;;;;;;;;;;;;;;5063078;28;1049;-69
2022/04/15 14:39:11;;;;;;;;;;;;;;;;;;5063220;28;914;-69
2022/04/15 14:41:37;;;;;;;;;;;;;;;;;;5062684;28;1686;-69
2022/04/15 14:44:02;;;;;;;;;;;;;;;;;;5062678;28;859;-68
2022/04/15 14:46:27;;;;;;;;;;;;;;;;;;5062631;28;1959;-68
2022/04/15 14:48:53;;;;;;;;;;;;;;;;;;5063009;28;878;-69
2022/04/15 14:51:18;;;;;;;;;;;;;;;;;;5062628;28;1057;-69
2022/04/15 14:53:43;;;;;;;;;;;;;;;;;;5062287;28;1412;-68
2022/04/15 14:56:08;;;;;;;;;;;;;;;;;;5062820;28;890;-69
2022/04/15 14:58:33;;;;;;;;;;;;;;;;;;5062646;28;1482;-68
2022/04/15 15:00:59;;;;;;;;;;;;;;;;;;5062505;28;1048;-69
2022/04/15 15:03:24;;;;;;;;;;;;;;;;;;5062092;28;1486;-68
2022/04/15 15:05:50;;;;;;;;;;;;;;;;;;5062505;28;1890;-69
2022/04/15 15:08:15;;;;;;;;;;;;;;;;;;5062466;28;950;-68
2022/04/15 15:10:41;;;;;;;;;;;;;;;;;;5062221;28;1502;-68
2022/04/15 15:13:07;;;;;;;;;;;;;;;;;;5062315;28;1306;-68
2022/04/15 15:15:32;;;;;;;;;;;;;;;;;;5062265;28;875;-69
2022/04/15 15:18:00;;;;;;;;;;;;;;;;;;5062024;28;1529;-68
2022/04/15 15:20:26;;;;;;;;;;;;;;;;;;5062057;28;1391;-69
2022/04/15 15:22:51;;;;;;;;;;;;;;;;;;5062046;28;1233;-69
2022/04/15 15:30:45;;;;;;;;;;;;;;;;;;5062350;28;614;-68
2022/04/15 15:33:12;;;;;;;;;;;;;;;;;;5061924;28;1246;-68
2022/04/15 15:35:37;;;;;;;;;;;;;;;;;;5061892;28;1439;-69
2022/04/15 15:38:03;;;;;;;;;;;;;;;;;;5062191;28;815;-69
2022/04/15 15:40:28;;;;;;;;;;;;;;;;;;5062130;28;993;-68
2022/04/15 15:42:53;;;;;;;;;;;;;;;;;;5061571;28;1451;-69
2022/04/15 15:45:19;;;;;;;;;;;;;;;;;;5061872;28;1017;-68
2022/04/15 15:47:44;;;;;;;;;;;;;;;;;;5061989;28;1961;-68
2022/04/15 15:50:10;;;;;;;;;;;;;;;;;;5061654;28;1478;-68
2022/04/15 15:52:35;;;;;;;;;;;;;;;;;;5061527;28;1208;-69
2022/04/15 15:55:01;;;;;;;;;;;;;;;;;;5061614;28;827;-68
2022/04/15 15:57:26;;;;;;;;;;;;;;;;;;5061830;28;926;-68
2022/04/15 15:59:51;;;;;;;;;;;;;;;;;;5067126;28;839;-68
2022/04/15 16:02:16;;;;;;;;;;;;;;;;;;5071604;28;1286;-69
2022/04/15 16:04:42;;;;;;;;;;;;;;;;;;5064435;28;1458;-68
2022/04/15 16:07:07;;;;;;;;;;;;;;;;;;5060257;28;1902;-68
2022/04/15 16:09:32;;;;;;;;;;;;;;;;;;5061530;28;989;-68
2022/04/15 16:11:57;;;;;;;;;;;;;;;;;;5061124;28;1284;-68
2022/04/15 16:14:23;;;;;;;;;;;;;;;;;;5061402;28;819;-68
2022/04/15 16:16:48;;;;;;;;;;;;;;;;;;5061292;28;907;-67
2022/04/15 16:19:14;;;;;;;;;;;;;;;;;;5061237;28;1537;-68
2022/04/15 16:21:39;;;;;;;;;;;;;;;;;;5060766;28;1487;-68
2022/04/15 16:24:07;;;;;;;;;;;;;;;;;;5060749;28;835;-67
2022/04/15 16:26:32;;;;;;;;;;;;;;;;;;5061911;28;1980;-66
2022/04/15 16:28:57;;;;;;;;;;;;;;;;;;5065090;28;823;-68
2022/04/15 16:31:23;;;;;;;;;;;;;;;;;;5061185;28;844;-69
2022/04/15 16:33:48;;;;;;;;;;;;;;;;;;5060625;28;1606;-67
2022/04/15 16:36:13;;;;;;;;;;;;;;;;;;5061142;28;1068;-68
2022/04/15 16:38:38;;;;;;;;;;;;;;;;;;5061216;28;1577;-68
2022/04/15 16:41:05;;;;;;;;;;;;;;;;;;5060955;28;1004;-68
2022/04/15 16:43:33;;;;;;;;;;;;;;;;;;5060816;28;1192;-68
2022/04/15 16:45:58;;;;;;;;;;;;;;;;;;5060751;28;1905;-68
2022/04/15 16:48:23;;;;;;;;;;;;;;;;;;5061134;28;949;-69
2022/04/15 16:50:49;;;;;;;;;;;;;;;;;;5061021;28;847;-70
2022/04/15 16:53:14;;;;;;;;;;;;;;;;;;5060712;28;1274;-69
2022/04/15 16:58:40;;;;;;;;;;;;;;;;;;5061228;28;697;-69
2022/04/15 17:01:07;;;;;;;;;;;;;;;;;;5060871;28;851;-70
2022/04/15 17:03:33;;;;;;;;;;;;;;;;;;5060249;28;1542;-68
2022/04/15 17:05:58;;;;;;;;;;;;;;;;;;5060735;28;1886;-69
2022/04/15 17:08:23;;;;;;;;;;;;;;;;;;5060975;28;895;-71
2022/04/15 17:10:48;;;;;;;;;;;;;;;;;;5060850;28;882;-70
2022/04/15 17:13:46;;;;;;;;;;;;;;;;;;5060495;28;1219;-69
2022/04/15 17:16:11;;;;;;;;;;;;;;;;;;5047859;28;1572;-70
2022/04/15 17:18:39;;;;;;;;;;;;;;;;;;5060533;28;1577;-70
2022/04/15 17:21:05;;;;;;;;;;;;;;;;;;5060689;28;871;-70